Kasagimaru — JJ3905 — position and weather

sailwx.info

Track history (hours):
 
Tides and Currents Weather Stations Pressure Air Temp Water Temp Dewpoint Dewpoint Depression Visibility Wind Speed Wind Dir Waves Ship Positions

Kasagimaru

Last reported at 2017-Feb-27 19:10 UTC. Time now 2017-Feb-27 20:27 UTC.
Position N 34°33' E 135°27'.

Length 42 m; draft 3.5 m.

Type: Tug. MMSI: 431300268.

Date/timePositionNaut miles runAvg speedWind from/ knotsBaromVisibWave heightAir tempDewpointWater temp
2017-Feb-27 19:10N 34°33' E 135°27'0 0.0
2017-Feb-27 18:32N 34°33' E 135°27'0 0.0
2017-Feb-27 17:33N 34°33' E 135°27'2 0.3
2017-Feb-27 10:31N 34°33' E 135°24'3 1.8
2017-Feb-27 09:05N 34°31' E 135°23'0 0.4
2017-Feb-27 08:25N 34°31' E 135°23'0 0.0
2017-Feb-27 07:31N 34°31' E 135°23'3 3.5
2017-Feb-27 06:32N 34°33' E 135°26'0 0.3
2017-Feb-27 05:33N 34°33' E 135°26'5 4.5
2017-Feb-27 04:33N 34°34' E 135°20'0 0.1
2017-Feb-27 03:33N 34°34' E 135°20'5 0.3
2017-Feb-26 10:33N 34°34' E 135°14'1211.5
2017-Feb-26 09:33N 34°37' E 135°01'6 0.9
2017-Feb-26 02:30N 34°37' E 134°53'1010.5
2017-Feb-26 01:31N 34°35' E 135°06'1211.9
2017-Feb-26 00:33N 34°34' E 135°20'0 0.2
2017-Feb-25 22:33N 34°34' E 135°20'6 4.2
2017-Feb-25 21:14N 34°33' E 135°27'0 0.0
2017-Feb-25 20:33N 34°33' E 135°27'0 0.0
2017-Feb-25 19:33N 34°33' E 135°27'0 0.0
2017-Feb-25 18:33N 34°33' E 135°27'0 0.0
2017-Feb-25 05:32N 34°33' E 135°27'0 0.0
2017-Feb-25 04:33N 34°33' E 135°27'0 0.0
2017-Feb-25 01:33N 34°33' E 135°27'1 1.1
2017-Feb-25 00:33N 34°33' E 135°25'4 4.3
2017-Feb-24 23:33N 34°33' E 135°20'5 4.6
2017-Feb-24 22:33N 34°33' E 135°26'0 0.0
2017-Feb-23 22:33N 34°33' E 135°26'2 2.0
2017-Feb-23 21:29N 34°31' E 135°25'3 0.2
2017-Feb-23 08:33N 34°32' E 135°22'1211.4
2017-Feb-23 07:30N 34°25' E 135°10'7 2.8
2017-Feb-23 05:09N 34°31' E 135°06'5 8.7
2017-Feb-23 04:33N 34°36' E 135°03'4 0.1
2017-Feb-21 22:06N 34°38' E 134°59'610.5
2017-Feb-21 21:33N 34°35' E 135°05'21 9.6
2017-Feb-21 19:22N 34°15' E 135°00'4 5.3
2017-Feb-21 18:33N 34°11' E 135°01'7 7.0
2017-Feb-21 17:33N 34°13' E 135°09'0 0.0
2017-Feb-21 16:33N 34°13' E 135°09'0 0.0
2017-Feb-21 15:33N 34°13' E 135°09'0 0.0
2017-Feb-21 14:33N 34°13' E 135°09'0 0.0
2017-Feb-21 13:33N 34°13' E 135°09'0 0.0
2017-Feb-21 12:33N 34°13' E 135°09'0 0.0
2017-Feb-21 11:33N 34°13' E 135°09'0 0.0
2017-Feb-21 10:33N 34°13' E 135°09'0 0.0
2017-Feb-21 09:33N 34°13' E 135°09'0 0.0
2017-Feb-21 08:33N 34°13' E 135°09'0 0.0
2017-Feb-21 07:33N 34°13' E 135°09'1 1.0
2017-Feb-21 06:33N 34°13' E 135°08'9 8.6
2017-Feb-21 05:33N 34°22' E 135°08'1312.7
2017-Feb-21 04:33N 34°29' E 135°20'6 4.1
2017-Feb-21 03:09N 34°33' E 135°25'3 5.4
2017-Feb-21 02:31N 34°33' E 135°21'1 1.0
2017-Feb-21 01:33N 34°33' E 135°21'3 3.3
2017-Feb-21 00:33N 34°33' E 135°24'1 1.2
2017-Feb-20 23:30N 34°33' E 135°26'0 0.5
2017-Feb-20 22:33N 34°33' E 135°27'0 0.0
2017-Feb-20 21:34N 34°33' E 135°27'0 0.0
2017-Feb-20 20:34N 34°33' E 135°27'0 0.0
2017-Feb-20 19:33N 34°33' E 135°27'0 0.0
2017-Feb-20 18:34N 34°33' E 135°27'0 0.0
2017-Feb-20 17:33N 34°33' E 135°27'11 1.2
2017-Feb-20 08:12N 34°25' E 135°17'10 3.9
2017-Feb-20 05:33N 34°29' E 135°05'7 6.6
2017-Feb-20 04:33N 34°36' E 135°03'1 0.0
2017-Feb-19 03:32N 34°36' E 135°04'20 8.8
2017-Feb-19 01:16N 34°16' E 134°59'4 4.1
2017-Feb-19 00:12N 34°12' E 135°01'912.2
2017-Feb-18 23:30N 34°20' E 135°05'1213.1
2017-Feb-18 22:33N 34°27' E 135°18'10 1.4
2017-Feb-18 15:31N 34°33' E 135°27'0 0.0
2017-Feb-18 14:33N 34°33' E 135°27'0 0.0
2017-Feb-18 13:31N 34°33' E 135°27'2 0.2
2017-Feb-18 02:33N 34°33' E 135°24'0 0.1
2017-Feb-18 01:32N 34°33' E 135°24'3 3.2
2017-Feb-18 00:33N 34°33' E 135°20'  
Track history (hours):
 
Tides and Currents Weather Stations Pressure Air Temp Water Temp Dewpoint Dewpoint Depression Visibility Wind Speed Wind Dir Waves Ship Positions

Kasagimaru

Last reported at 2017-Feb-27 19:10 UTC. Time now 2017-Feb-27 20:27 UTC.
Position N 34°33' E 135°27'.

Length 42 m; draft 3.5 m.

Type: Tug. MMSI: 431300268.

Date/timePositionNaut miles runAvg speedWind from/ knotsBaromVisibWave heightAir tempDewpointWater temp
2017-Feb-27 19:10N 34°33' E 135°27'0 0.0
2017-Feb-27 18:32N 34°33' E 135°27'0 0.0
2017-Feb-27 17:33N 34°33' E 135°27'2 0.3
2017-Feb-27 10:31N 34°33' E 135°24'3 1.8
2017-Feb-27 09:05N 34°31' E 135°23'0 0.4
2017-Feb-27 08:25N 34°31' E 135°23'0 0.0
2017-Feb-27 07:31N 34°31' E 135°23'3 3.5
2017-Feb-27 06:32N 34°33' E 135°26'0 0.3
2017-Feb-27 05:33N 34°33' E 135°26'5 4.5
2017-Feb-27 04:33N 34°34' E 135°20'0 0.1
2017-Feb-27 03:33N 34°34' E 135°20'5 0.3
2017-Feb-26 10:33N 34°34' E 135°14'1211.5
2017-Feb-26 09:33N 34°37' E 135°01'6 0.9
2017-Feb-26 02:30N 34°37' E 134°53'1010.5
2017-Feb-26 01:31N 34°35' E 135°06'1211.9
2017-Feb-26 00:33N 34°34' E 135°20'0 0.2
2017-Feb-25 22:33N 34°34' E 135°20'6 4.2
2017-Feb-25 21:14N 34°33' E 135°27'0 0.0
2017-Feb-25 20:33N 34°33' E 135°27'0 0.0
2017-Feb-25 19:33N 34°33' E 135°27'0 0.0
2017-Feb-25 18:33N 34°33' E 135°27'0 0.0
2017-Feb-25 05:32N 34°33' E 135°27'0 0.0
2017-Feb-25 04:33N 34°33' E 135°27'0 0.0
2017-Feb-25 01:33N 34°33' E 135°27'1 1.1
2017-Feb-25 00:33N 34°33' E 135°25'4 4.3
2017-Feb-24 23:33N 34°33' E 135°20'5 4.6
2017-Feb-24 22:33N 34°33' E 135°26'0 0.0
2017-Feb-23 22:33N 34°33' E 135°26'2 2.0
2017-Feb-23 21:29N 34°31' E 135°25'3 0.2
2017-Feb-23 08:33N 34°32' E 135°22'1211.4
2017-Feb-23 07:30N 34°25' E 135°10'7 2.8
2017-Feb-23 05:09N 34°31' E 135°06'5 8.7
2017-Feb-23 04:33N 34°36' E 135°03'4 0.1
2017-Feb-21 22:06N 34°38' E 134°59'610.5
2017-Feb-21 21:33N 34°35' E 135°05'21 9.6
2017-Feb-21 19:22N 34°15' E 135°00'4 5.3
2017-Feb-21 18:33N 34°11' E 135°01'7 7.0
2017-Feb-21 17:33N 34°13' E 135°09'0 0.0
2017-Feb-21 16:33N 34°13' E 135°09'0 0.0
2017-Feb-21 15:33N 34°13' E 135°09'0 0.0
2017-Feb-21 14:33N 34°13' E 135°09'0 0.0
2017-Feb-21 13:33N 34°13' E 135°09'0 0.0
2017-Feb-21 12:33N 34°13' E 135°09'0 0.0
2017-Feb-21 11:33N 34°13' E 135°09'0 0.0
2017-Feb-21 10:33N 34°13' E 135°09'0 0.0
2017-Feb-21 09:33N 34°13' E 135°09'0 0.0
2017-Feb-21 08:33N 34°13' E 135°09'0 0.0
2017-Feb-21 07:33N 34°13' E 135°09'1 1.0
2017-Feb-21 06:33N 34°13' E 135°08'9 8.6
2017-Feb-21 05:33N 34°22' E 135°08'1312.7
2017-Feb-21 04:33N 34°29' E 135°20'6 4.1
2017-Feb-21 03:09N 34°33' E 135°25'3 5.4
2017-Feb-21 02:31N 34°33' E 135°21'1 1.0
2017-Feb-21 01:33N 34°33' E 135°21'3 3.3
2017-Feb-21 00:33N 34°33' E 135°24'1 1.2
2017-Feb-20 23:30N 34°33' E 135°26'0 0.5
2017-Feb-20 22:33N 34°33' E 135°27'0 0.0
2017-Feb-20 21:34N 34°33' E 135°27'0 0.0
2017-Feb-20 20:34N 34°33' E 135°27'0 0.0
2017-Feb-20 19:33N 34°33' E 135°27'0 0.0
2017-Feb-20 18:34N 34°33' E 135°27'0 0.0
2017-Feb-20 17:33N 34°33' E 135°27'11 1.2
2017-Feb-20 08:12N 34°25' E 135°17'10 3.9
2017-Feb-20 05:33N 34°29' E 135°05'7 6.6
2017-Feb-20 04:33N 34°36' E 135°03'1 0.0
2017-Feb-19 03:32N 34°36' E 135°04'20 8.8
2017-Feb-19 01:16N 34°16' E 134°59'4 4.1
2017-Feb-19 00:12N 34°12' E 135°01'912.2
2017-Feb-18 23:30N 34°20' E 135°05'1213.1
2017-Feb-18 22:33N 34°27' E 135°18'10 1.4
2017-Feb-18 15:31N 34°33' E 135°27'0 0.0
2017-Feb-18 14:33N 34°33' E 135°27'0 0.0
2017-Feb-18 13:31N 34°33' E 135°27'2 0.2
2017-Feb-18 02:33N 34°33' E 135°24'0 0.1
2017-Feb-18 01:32N 34°33' E 135°24'3 3.2
2017-Feb-18 00:33N 34°33' E 135°20'  

Dump ship's entire track history